Time;durP1;ratioP1;P1;durP2;ratioP2;P2;SDS_P1;SDS_P2;PMS_P1;PMS_P2;Temp;Humidity;BMP_temperature;BMP_pressure;BME280_temperature;BME280_humidity;BME280_pressure;Samples;Min_cycle;Max_cycle;Signal;HPM_P1;HPM_P2
2022/01/04 00:01:08;;;;;;;3.05;0.90;;;10.70;13.30;;;;;;5045680;28;20399;-66
2022/01/04 00:03:36;;;;;;;2.60;1.17;;;10.60;13.70;;;;;;5047153;28;20044;-65
2022/01/04 00:06:04;;;;;;;2.15;0.98;;;10.70;13.80;;;;;;5049188;28;20045;-66
2022/01/04 00:08:33;;;;;;;1.98;1.33;;;10.60;14.30;;;;;;5051008;28;20036;-66
2022/01/04 00:11:08;;;;;;;1.73;0.98;;;10.60;14.90;;;;;;5053953;28;20048;-67
2022/01/04 00:13:36;;;;;;;1.33;0.60;;;10.50;14.60;;;;;;5065035;28;20093;-66
2022/01/04 00:16:07;;;;;;;1.73;0.90;;;10.50;15.30;;;;;;5069538;28;20050;-66
2022/01/04 00:18:36;;;;;;;1.10;0.80;;;10.50;15.30;;;;;;5071800;28;20411;-66
2022/01/04 00:21:05;;;;;;;1.73;0.77;;;10.60;15.40;;;;;;5070260;28;20136;-65
2022/01/04 00:23:34;;;;;;;2.45;1.00;;;10.50;15.30;;;;;;5056108;28;20041;-66
2022/01/04 00:26:02;;;;;;;2.22;0.60;;;10.50;15.70;;;;;;5053244;28;20123;-66
2022/01/04 00:28:30;;;;;;;5.47;0.90;;;10.50;16.10;;;;;;5051797;28;20067;-66
2022/01/04 00:30:58;;;;;;;3.05;1.05;;;10.50;16.10;;;;;;5069215;28;20128;-66
2022/01/04 00:33:26;;;;;;;1.15;0.70;;;10.50;16.40;;;;;;5053052;28;20164;-66
2022/01/04 00:35:56;;;;;;;4.22;1.20;;;10.50;16.10;;;;;;5048359;28;20060;-66
2022/01/04 00:38:24;;;;;;;1.67;0.85;;;10.50;16.30;;;;;;5050778;28;20041;-66
2022/01/04 00:40:52;;;;;;;1.65;0.70;;;10.50;16.50;;;;;;5048214;28;20056;-67
2022/01/04 00:43:21;;;;;;;0.90;0.60;;;10.50;16.80;;;;;;5048721;28;20516;-66
2022/01/04 00:45:51;;;;;;;2.15;1.00;;;10.50;16.80;;;;;;5068960;28;20071;-67
2022/01/04 00:51:09;;;;;;;1.23;0.90;;;10.50;16.90;;;;;;5053414;28;20063;-66
2022/01/04 00:53:37;;;;;;;1.90;0.75;;;10.50;16.60;;;;;;5045784;28;20052;-66
2022/01/04 00:56:05;;;;;;;1.15;0.73;;;10.50;16.60;;;;;;5050448;28;20550;-65
2022/01/04 00:58:33;;;;;;;1.67;0.90;;;10.60;16.40;;;;;;5050637;28;20189;-66
2022/01/04 01:01:01;;;;;;;1.90;1.00;;;10.50;16.50;;;;;;5045152;28;20053;-66
2022/01/04 01:03:30;;;;;;;2.03;0.70;;;10.60;16.40;;;;;;5048171;28;20051;-67
2022/01/04 01:05:58;;;;;;;2.17;0.70;;;10.60;16.50;;;;;;5048439;28;20523;-66
2022/01/04 01:08:27;;;;;;;0.60;0.60;;;10.60;16.60;;;;;;5050969;28;20068;-66
2022/01/04 01:10:55;;;;;;;1.38;0.77;;;10.60;16.30;;;;;;5049521;28;20501;-66
2022/01/04 01:13:24;;;;;;;1.52;0.73;;;10.60;16.50;;;;;;5047178;28;20668;-65
2022/01/04 01:15:52;;;;;;;2.33;0.88;;;10.60;16.40;;;;;;5046565;28;20128;-65
2022/01/04 01:18:20;;;;;;;1.02;0.70;;;10.50;16.20;;;;;;5050504;28;20049;-65
2022/01/04 01:20:50;;;;;;;1.95;0.85;;;10.60;16.60;;;;;;5046323;28;20055;-66
2022/01/04 01:23:18;;;;;;;4.20;0.93;;;10.60;16.60;;;;;;5043191;28;20073;-66
2022/01/04 01:25:48;;;;;;;2.08;1.00;;;10.50;16.80;;;;;;5046530;28;20047;-66
2022/01/04 01:28:17;;;;;;;3.17;0.90;;;10.60;16.80;;;;;;5067202;28;20205;-66
2022/01/04 01:30:45;;;;;;;2.58;1.00;;;10.60;16.40;;;;;;5069266;28;20136;-65
2022/01/04 01:33:15;;;;;;;2.72;1.15;;;10.60;16.90;;;;;;5064816;28;20049;-66
2022/01/04 01:35:43;;;;;;;1.90;0.90;;;10.60;16.70;;;;;;5065731;28;20128;-66
2022/01/04 01:38:14;;;;;;;1.83;0.85;;;10.50;17.10;;;;;;5064814;28;20052;-66
2022/01/04 01:40:43;;;;;;;1.00;0.88;;;10.50;17.30;;;;;;5064958;28;20040;-65
2022/01/04 01:43:12;;;;;;;1.90;1.08;;;10.50;17.30;;;;;;5046734;28;20118;-66
2022/01/04 01:45:41;;;;;;;1.38;0.73;;;10.50;17.20;;;;;;5049645;28;20488;-65
2022/01/04 01:48:09;;;;;;;1.85;0.82;;;10.50;17.50;;;;;;5050495;28;20053;-66
2022/01/04 01:50:38;;;;;;;3.15;1.02;;;10.50;17.40;;;;;;5046676;28;20140;-67
2022/01/04 01:53:06;;;;;;;1.23;0.82;;;10.50;17.90;;;;;;5044244;28;20055;-66
2022/01/04 01:55:37;;;;;;;1.52;0.93;;;10.40;18.80;;;;;;5045415;28;20047;-67
2022/01/04 01:58:06;;;;;;;2.78;1.00;;;10.40;18.70;;;;;;5045933;28;20061;-65
2022/01/04 02:00:35;;;;;;;2.17;1.00;;;10.50;18.70;;;;;;5063421;28;20036;-66
2022/01/04 02:03:04;;;;;;;5.07;1.23;;;10.40;18.80;;;;;;5051092;28;20043;-66
2022/01/04 02:05:33;;;;;;;3.42;0.90;;;10.40;18.80;;;;;;5051985;28;20063;-65
2022/01/04 02:08:03;;;;;;;1.70;0.93;;;10.40;18.60;;;;;;5053837;28;20048;-66
2022/01/04 02:10:31;;;;;;;2.58;0.90;;;10.40;18.90;;;;;;5052383;28;20521;-68
2022/01/04 02:13:00;;;;;;;1.92;0.98;;;10.30;19.70;;;;;;5050289;28;20098;-65
2022/01/04 02:15:32;;;;;;;1.90;0.95;;;10.30;19.70;;;;;;5055520;28;20053;-65
2022/01/04 02:18:04;;;;;;;1.88;0.77;;;10.40;19.60;;;;;;5053673;28;20045;-66
2022/01/04 02:20:33;;;;;;;1.50;0.90;;;10.40;19.30;;;;;;5049921;28;20144;-66
2022/01/04 02:23:01;;;;;;;4.57;0.88;;;10.30;19.90;;;;;;5048361;28;20492;-66
2022/01/04 02:25:29;;;;;;;1.83;0.95;;;10.30;20.00;;;;;;5050324;28;20056;-67
2022/01/04 02:27:57;;;;;;;2.00;1.00;;;10.30;20.30;;;;;;5054482;28;20053;-66
2022/01/04 02:30:25;;;;;;;1.75;1.02;;;10.30;20.50;;;;;;5056029;28;20053;-66
2022/01/04 02:32:54;;;;;;;3.35;1.35;;;10.40;20.10;;;;;;5048179;28;20060;-67
2022/01/04 02:35:24;;;;;;;1.73;1.02;;;10.30;20.20;;;;;;5052221;28;20049;-66
2022/01/04 02:37:56;;;;;;;1.63;1.00;;;10.30;20.80;;;;;;5055954;28;20053;-66
2022/01/04 02:40:24;;;;;;;1.35;1.13;;;10.30;20.80;;;;;;5047101;28;20073;-66
2022/01/04 02:42:53;;;;;;;1.48;1.00;;;10.30;20.90;;;;;;5051184;28;20835;-66
2022/01/04 02:45:23;;;;;;;3.10;1.00;;;10.20;21.40;;;;;;5055351;28;20606;-66
2022/01/04 02:47:53;;;;;;;2.63;1.05;;;10.30;21.40;;;;;;5045755;28;20033;-66
2022/01/04 02:50:21;;;;;;;2.85;1.52;;;10.30;21.50;;;;;;5055493;28;20064;-66
2022/01/04 02:52:49;;;;;;;2.20;1.50;;;10.30;21.20;;;;;;5058192;28;20048;-66
2022/01/04 02:55:19;;;;;;;1.60;1.25;;;10.30;20.80;;;;;;5046107;28;20044;-66
2022/01/04 02:57:47;;;;;;;1.77;1.20;;;10.30;20.40;;;;;;5046565;28;20036;-67
2022/01/04 03:00:17;;;;;;;2.88;1.40;;;10.40;20.30;;;;;;5047753;28;20041;-66
2022/01/04 03:02:46;;;;;;;2.25;1.50;;;10.30;19.80;;;;;;5045705;28;20103;-65
2022/01/04 03:05:14;;;;;;;2.45;1.17;;;10.40;19.50;;;;;;5055025;28;20056;-66
2022/01/04 03:07:42;;;;;;;1.73;1.30;;;10.50;19.20;;;;;;5065980;28;20087;-67
2022/01/04 03:10:12;;;;;;;3.13;1.38;;;10.50;19.00;;;;;;5047350;28;20131;-66
2022/01/04 03:12:44;;;;;;;1.55;1.20;;;10.50;19.00;;;;;;5047326;28;20037;-65
2022/01/04 03:15:12;;;;;;;2.33;1.50;;;10.50;19.30;;;;;;5052028;28;20130;-65
2022/01/04 03:17:40;;;;;;;2.30;1.27;;;10.50;19.70;;;;;;5048538;28;20622;-66
2022/01/04 03:20:11;;;;;;;2.22;1.50;;;10.40;19.50;;;;;;5049246;28;20048;-65
2022/01/04 03:22:39;;;;;;;3.00;1.52;;;10.50;19.70;;;;;;5048340;28;20130;-67
2022/01/04 03:25:08;;;;;;;2.95;1.60;;;10.40;19.60;;;;;;5049806;28;21127;-65
2022/01/04 03:27:36;;;;;;;2.10;1.25;;;10.50;19.00;;;;;;5048628;28;20065;-66
2022/01/04 03:30:07;;;;;;;2.90;1.38;;;10.60;18.60;;;;;;5061386;28;20091;-66
2022/01/04 03:32:35;;;;;;;5.28;1.55;;;10.60;18.00;;;;;;5056172;28;20037;-66
2022/01/04 03:35:03;;;;;;;2.03;1.50;;;10.60;18.10;;;;;;5055056;28;20064;-66
2022/01/04 03:37:31;;;;;;;1.92;1.48;;;10.60;18.50;;;;;;5051342;28;20060;-65
2022/01/04 03:40:01;;;;;;;2.53;1.65;;;10.60;18.30;;;;;;5067940;28;20109;-66
2022/01/04 03:42:28;;;;;;;2.83;1.65;;;10.60;19.00;;;;;;5068706;28;20082;-66
2022/01/04 03:44:56;;;;;;;2.45;1.38;;;10.60;19.00;;;;;;5072726;28;20052;-66
2022/01/04 03:47:26;;;;;;;1.60;1.40;;;10.60;19.00;;;;;;5067790;28;20048;-66
2022/01/04 03:49:54;;;;;;;2.35;1.30;;;10.60;19.20;;;;;;5066650;28;20590;-66
2022/01/04 03:52:22;;;;;;;3.15;1.58;;;10.50;20.50;;;;;;5068265;28;20080;-66
2022/01/04 03:54:50;;;;;;;2.20;1.30;;;10.50;21.00;;;;;;5070308;28;20136;-66
2022/01/04 03:57:20;;;;;;;2.63;1.30;;;10.40;22.00;;;;;;5071680;28;20053;-66
2022/01/04 03:59:48;;;;;;;2.63;1.15;;;10.40;22.30;;;;;;5060992;28;20079;-66
2022/01/04 04:02:16;;;;;;;2.72;1.50;;;10.40;22.30;;;;;;5046965;28;20044;-66
2022/01/04 04:04:46;;;;;;;1.98;1.52;;;10.40;22.30;;;;;;5052404;28;20128;-65
2022/01/04 04:07:14;;;;;;;1.88;1.20;;;10.50;21.90;;;;;;5050844;28;20127;-66
2022/01/04 04:09:42;;;;;;;1.83;1.20;;;10.50;21.40;;;;;;5049588;28;20049;-66
2022/01/04 04:12:11;;;;;;;3.35;1.52;;;10.50;22.20;;;;;;5053168;28;20057;-65
2022/01/04 04:14:39;;;;;;;2.03;1.33;;;10.40;22.30;;;;;;5049442;28;20120;-65
2022/01/04 04:17:14;;;;;;;1.88;1.30;;;10.40;22.50;;;;;;5047528;28;20055;-66
2022/01/04 04:19:42;;;;;;;1.60;1.17;;;10.40;23.10;;;;;;5049456;28;20049;-65
2022/01/04 04:22:12;;;;;;;3.08;1.30;;;10.40;23.00;;;;;;5050036;28;20134;-65
2022/01/04 04:24:41;;;;;;;1.92;1.30;;;10.40;24.20;;;;;;5050806;28;20055;-67
2022/01/04 04:27:09;;;;;;;2.25;1.10;;;10.40;24.10;;;;;;5047979;28;20072;-66
2022/01/04 04:29:37;;;;;;;1.73;0.98;;;10.40;24.80;;;;;;5050128;28;20119;-66
2022/01/04 04:32:06;;;;;;;3.03;1.20;;;10.40;25.10;;;;;;5046142;28;20501;-65
2022/01/04 04:34:34;;;;;;;1.48;1.13;;;10.40;25.40;;;;;;5050585;28;20041;-65
2022/01/04 04:37:02;;;;;;;2.60;1.02;;;10.40;24.60;;;;;;5049592;28;20147;-64
2022/01/04 04:39:31;;;;;;;1.40;1.20;;;10.40;25.10;;;;;;5046910;28;20049;-66
2022/01/04 04:42:00;;;;;;;1.98;1.30;;;10.40;25.10;;;;;;5050467;28;20099;-65
2022/01/04 04:44:28;;;;;;;1.10;0.93;;;10.50;25.40;;;;;;5050385;28;20067;-65
2022/01/04 04:46:56;;;;;;;0.90;0.80;;;10.50;26.10;;;;;;5047925;28;20076;-66
2022/01/04 04:49:24;;;;;;;2.50;1.00;;;10.40;26.10;;;;;;5059045;28;20462;-66
2022/01/04 04:51:54;;;;;;;1.48;1.00;;;10.40;25.80;;;;;;5050533;28;20047;-66
2022/01/04 04:54:22;;;;;;;2.65;1.00;;;10.40;26.80;;;;;;5048235;28;20072;-65
2022/01/04 04:56:51;;;;;;;2.58;1.33;;;10.30;27.80;;;;;;5050181;28;20068;-65
2022/01/04 04:59:19;;;;;;;1.40;1.00;;;10.30;28.50;;;;;;5048969;28;20103;-65
2022/01/04 05:01:47;;;;;;;2.45;1.00;;;10.30;28.60;;;;;;5048147;28;20079;-65
2022/01/04 05:04:18;;;;;;;1.80;1.13;;;10.30;28.60;;;;;;5051574;28;20076;-65
2022/01/04 05:06:46;;;;;;;3.38;1.13;;;10.30;29.10;;;;;;5047516;28;20037;-65
2022/01/04 05:09:15;;;;;;;1.25;0.80;;;10.30;29.60;;;;;;5043632;28;20048;-65
2022/01/04 05:11:43;;;;;;;1.45;0.88;;;10.40;29.90;;;;;;5053530;28;20049;-65
2022/01/04 05:14:12;;;;;;;1.20;0.90;;;10.30;30.00;;;;;;5051351;28;20429;-65
2022/01/04 05:16:40;;;;;;;1.65;0.90;;;10.30;30.20;;;;;;5046629;28;20590;-65
2022/01/04 05:19:08;;;;;;;1.52;0.98;;;10.30;31.80;;;;;;5050762;28;20102;-66
2022/01/04 05:21:36;;;;;;;3.80;1.30;;;10.30;32.40;;;;;;5049253;28;20045;-65
2022/01/04 05:24:07;;;;;;;1.88;1.00;;;10.30;33.50;;;;;;5045739;28;20109;-65
2022/01/04 05:26:35;;;;;;;1.92;1.10;;;10.30;34.60;;;;;;5045718;28;20049;-64
2022/01/04 05:29:03;;;;;;;1.60;0.90;;;10.20;36.60;;;;;;5049314;28;20052;-65
2022/01/04 05:31:33;;;;;;;1.55;0.85;;;10.30;36.20;;;;;;5048702;28;20055;-65
2022/01/04 05:34:01;;;;;;;1.90;1.08;;;10.20;37.20;;;;;;5047889;28;20045;-65
2022/01/04 05:36:29;;;;;;;1.00;0.85;;;10.20;37.90;;;;;;5047480;28;20045;-64
2022/01/04 05:39:01;;;;;;;0.88;0.75;;;10.20;37.80;;;;;;5045385;28;20219;-65
2022/01/04 05:41:30;;;;;;;1.23;1.05;;;10.30;37.50;;;;;;5047430;28;20098;-65
2022/01/04 05:43:59;;;;;;;1.27;0.95;;;10.20;38.00;;;;;;5045079;28;20550;-65
2022/01/04 05:46:29;;;;;;;1.35;1.00;;;10.20;38.40;;;;;;5051305;28;20542;-65
2022/01/04 05:48:58;;;;;;;2.15;0.82;;;10.20;39.10;;;;;;5052651;28;20053;-65
2022/01/04 05:51:26;;;;;;;0.98;0.80;;;10.20;39.50;;;;;;5047255;28;20120;-65
2022/01/04 05:53:54;;;;;;;2.28;1.20;;;10.30;38.90;;;;;;5044706;28;20095;-65
2022/01/04 05:56:22;;;;;;;1.92;1.10;;;10.30;38.10;;;;;;5052334;28;20041;-65
2022/01/04 05:58:50;;;;;;;4.03;1.30;;;10.30;38.50;;;;;;5047777;28;20421;-65
2022/01/04 06:01:18;;;;;;;1.50;1.10;;;10.30;38.90;;;;;;5048246;28;20056;-65
2022/01/04 06:03:50;;;;;;;1.63;1.13;;;10.30;38.90;;;;;;5048842;28;20047;-65
2022/01/04 06:06:20;;;;;;;1.33;1.00;;;10.30;39.90;;;;;;5048197;28;20128;-65
2022/01/04 06:08:49;;;;;;;5.00;1.00;;;10.30;40.80;;;;;;5049248;28;20110;-64
2022/01/04 06:11:31;;;;;;;1.75;1.40;;;10.30;40.70;;;;;;5045893;28;20037;-64
2022/01/04 06:16:55;;;;;;;1.58;1.10;;;10.20;42.00;;;;;;4988308;28;20043;-64
2022/01/04 06:19:24;;;;;;;2.83;1.10;;;10.20;42.80;;;;;;5048846;28;20075;-65
2022/01/04 06:21:53;;;;;;;2.05;1.23;;;10.30;42.80;;;;;;5044627;28;20040;-65
2022/01/04 06:24:25;;;;;;;3.38;1.50;;;10.30;42.10;;;;;;5051057;28;20147;-65
2022/01/04 06:26:53;;;;;;;2.15;1.20;;;10.30;42.90;;;;;;5045054;28;20056;-65
2022/01/04 06:29:22;;;;;;;1.25;1.08;;;10.30;43.00;;;;;;5047790;28;20067;-65
2022/01/04 06:31:50;;;;;;;2.65;1.27;;;10.30;43.30;;;;;;5048611;28;20049;-64
2022/01/04 06:34:19;;;;;;;1.20;1.10;;;10.20;44.10;;;;;;5050914;28;20037;-65
2022/01/04 06:36:47;;;;;;;2.35;1.13;;;10.20;45.20;;;;;;5045091;28;20052;-65
2022/01/04 06:39:16;;;;;;;2.08;1.15;;;10.30;44.30;;;;;;5045421;28;20072;-64
2022/01/04 06:41:44;;;;;;;1.67;1.00;;;10.30;44.80;;;;;;5049563;28;20132;-65
2022/01/04 06:44:12;;;;;;;1.05;0.90;;;10.30;45.60;;;;;;5048805;28;20033;-65
2022/01/04 06:46:45;;;;;;;1.75;1.15;;;10.30;45.70;;;;;;5044451;28;20135;-65
2022/01/04 06:49:13;;;;;;;1.38;1.02;;;10.30;45.70;;;;;;5047568;28;20057;-64
2022/01/04 06:51:42;;;;;;;3.20;2.03;;;10.30;45.70;;;;;;5047615;28;20523;-65
2022/01/04 06:54:11;;;;;;;1.63;1.00;;;10.30;46.20;;;;;;5048587;28;20128;-65
2022/01/04 06:56:41;;;;;;;1.48;1.13;;;10.30;46.80;;;;;;5045931;28;20073;-65
2022/01/04 06:59:10;;;;;;;2.38;0.80;;;10.30;47.30;;;;;;5045871;28;20069;-66
2022/01/04 07:01:39;;;;;;;2.67;1.20;;;10.40;47.50;;;;;;5044215;28;20049;-65
2022/01/04 07:04:08;;;;;;;1.88;1.05;;;10.40;47.30;;;;;;5049222;28;20772;-65
2022/01/04 07:06:39;;;;;;;1.67;1.35;;;10.30;47.70;;;;;;5044515;28;20040;-65
2022/01/04 07:09:08;;;;;;;1.65;0.90;;;10.30;48.60;;;;;;5046873;28;20037;-66
2022/01/04 07:11:37;;;;;;;1.83;1.17;;;10.30;49.30;;;;;;5049448;28;20135;-66
2022/01/04 07:14:06;;;;;;;1.13;0.93;;;10.30;50.30;;;;;;5043208;28;20041;-66
2022/01/04 07:16:34;;;;;;;1.40;1.00;;;10.40;49.80;;;;;;5049120;28;20050;-65
2022/01/04 07:19:04;;;;;;;1.92;1.20;;;10.50;49.90;;;;;;5049499;28;20137;-65
2022/01/04 07:21:32;;;;;;;2.22;1.00;;;10.50;49.80;;;;;;5047541;28;20044;-66
2022/01/04 07:24:01;;;;;;;1.88;0.80;;;10.50;49.90;;;;;;5047475;28;20512;-66
2022/01/04 07:26:29;;;;;;;1.70;1.15;;;10.50;50.10;;;;;;5046208;28;20500;-66
2022/01/04 07:28:57;;;;;;;2.15;1.38;;;10.50;50.10;;;;;;5047225;28;20083;-64
2022/01/04 07:31:26;;;;;;;4.57;1.58;;;10.50;50.20;;;;;;5045492;28;20095;-66
2022/01/04 07:33:54;;;;;;;2.92;1.63;;;10.50;50.40;;;;;;5045424;28;20059;-67
2022/01/04 07:36:23;;;;;;;2.60;1.00;;;10.50;50.80;;;;;;5045822;28;20059;-64
2022/01/04 07:38:51;;;;;;;3.10;1.30;;;10.50;51.40;;;;;;5046544;28;20247;-67
2022/01/04 07:41:19;;;;;;;1.23;0.88;;;10.50;51.50;;;;;;5048050;28;20047;-65
2022/01/04 07:43:48;;;;;;;1.73;1.08;;;10.50;51.30;;;;;;5044339;28;20408;-66
2022/01/04 07:46:15;;;;;;;0.93;0.85;;;10.60;51.30;;;;;;5048703;28;20128;-66
2022/01/04 07:48:45;;;;;;;1.35;0.93;;;10.60;51.70;;;;;;5047660;28;20447;-67
2022/01/04 07:51:13;;;;;;;3.92;1.00;;;10.60;51.90;;;;;;5042778;28;20045;-65
2022/01/04 07:53:41;;;;;;;1.58;1.00;;;10.60;52.00;;;;;;5048202;28;21006;-66
2022/01/04 07:56:09;;;;;;;2.05;0.80;;;10.60;52.10;;;;;;5047095;28;20073;-66
2022/01/04 07:58:37;;;;;;;1.95;0.95;;;10.60;52.00;;;;;;5049261;28;20133;-66
2022/01/04 08:01:07;;;;;;;1.75;1.00;;;10.60;52.30;;;;;;5052905;28;20103;-66
2022/01/04 08:03:35;;;;;;;1.55;1.10;;;10.60;52.30;;;;;;5048671;28;20094;-66
2022/01/04 08:06:05;;;;;;;1.35;1.20;;;10.70;52.40;;;;;;5052852;28;20041;-64
2022/01/04 08:08:33;;;;;;;1.52;0.95;;;10.70;52.50;;;;;;5051492;28;20076;-65
2022/01/04 08:11:01;;;;;;;2.42;1.25;;;10.70;52.60;;;;;;5046504;28;20071;-66
2022/01/04 08:13:30;;;;;;;2.60;1.00;;;10.70;52.80;;;;;;5049075;28;20045;-66
2022/01/04 08:15:58;;;;;;;2.75;1.30;;;10.80;52.50;;;;;;5050252;28;20135;-66
2022/01/04 08:18:27;;;;;;;3.40;1.20;;;10.80;52.50;;;;;;5048985;28;20558;-65
2022/01/04 08:20:57;;;;;;;1.90;0.93;;;10.80;52.10;;;;;;5050579;28;20051;-66
2022/01/04 08:23:27;;;;;;;1.90;1.02;;;10.90;51.60;;;;;;5050377;28;20550;-66
2022/01/04 08:25:55;;;;;;;1.88;0.93;;;10.90;50.80;;;;;;5048516;28;20688;-66
2022/01/04 08:28:23;;;;;;;8.77;5.95;;;10.90;50.80;;;;;;5051268;28;20041;-66
2022/01/04 08:30:52;;;;;;;2.45;1.13;;;11.10;50.30;;;;;;5049433;28;20045;-66
2022/01/04 08:33:36;;;;;;;1.05;0.63;;;11.10;48.80;;;;;;5047850;28;20120;-66
2022/01/04 08:36:07;;;;;;;1.75;0.80;;;11.20;47.70;;;;;;5046784;28;20095;-66
2022/01/04 08:38:39;;;;;;;3.85;0.85;;;11.20;46.90;;;;;;5050402;28;20527;-65
2022/01/04 08:41:07;;;;;;;1.55;1.00;;;11.30;47.10;;;;;;5053711;28;20077;-67
2022/01/04 08:43:35;;;;;;;2.00;1.10;;;11.30;46.60;;;;;;5071257;28;20052;-66
2022/01/04 08:46:04;;;;;;;2.00;0.95;;;11.30;46.50;;;;;;5050527;28;20045;-66
2022/01/04 08:48:32;;;;;;;2.42;0.90;;;11.40;44.30;;;;;;5048373;28;20037;-65
2022/01/04 08:51:02;;;;;;;1.40;0.85;;;11.50;44.10;;;;;;5050909;28;20504;-68
2022/01/04 08:53:30;;;;;;;2.25;1.30;;;11.50;44.40;;;;;;5047923;28;20047;-67
2022/01/04 08:56:01;;;;;;;1.20;0.90;;;11.50;45.10;;;;;;5048251;28;20106;-66
2022/01/04 08:58:29;;;;;;;3.70;0.85;;;11.50;44.20;;;;;;5050493;28;20096;-66
2022/01/04 09:00:58;;;;;;;1.23;0.90;;;11.50;44.30;;;;;;5050151;28;20110;-66
2022/01/04 09:03:26;;;;;;;2.67;1.00;;;11.50;45.40;;;;;;5044868;28;20486;-66
2022/01/04 09:05:56;;;;;;;1.85;0.90;;;11.50;45.60;;;;;;5059227;28;20135;-66
2022/01/04 09:08:25;;;;;;;6.18;2.72;;;11.60;44.80;;;;;;5064155;28;20188;-67
2022/01/04 09:10:54;;;;;;;1.80;0.85;;;11.60;43.90;;;;;;5051010;28;20052;-66
2022/01/04 09:13:26;;;;;;;1.48;1.08;;;11.60;43.70;;;;;;5046213;28;20100;-66
2022/01/04 09:18:46;;;;;;;1.75;1.00;;;11.60;44.40;;;;;;5051355;28;20123;-65
2022/01/04 09:21:35;;;;;;;2.97;0.90;;;11.60;44.00;;;;;;5070196;28;20415;-66
2022/01/04 09:24:05;;;;;;;3.08;1.10;;;11.60;43.80;;;;;;5069865;28;20067;-66
2022/01/04 09:26:33;;;;;;;3.30;1.30;;;11.60;44.60;;;;;;5067085;28;20515;-66
2022/01/04 09:29:03;;;;;;;1.83;0.80;;;11.60;43.70;;;;;;5067837;28;20134;-65
2022/01/04 09:31:32;;;;;;;1.90;1.00;;;11.70;42.70;;;;;;5073003;28;20056;-66
2022/01/04 09:34:02;;;;;;;1.20;1.02;;;11.70;43.30;;;;;;5072269;28;20156;-66
2022/01/04 09:36:34;;;;;;;1.80;0.90;;;11.70;41.60;;;;;;5067847;28;20136;-66
2022/01/04 09:39:05;;;;;;;1.60;1.02;;;11.80;40.60;;;;;;5069461;28;20124;-66
2022/01/04 09:41:33;;;;;;;3.33;1.13;;;11.80;41.30;;;;;;5067741;28;20060;-66
2022/01/04 09:44:03;;;;;;;1.63;0.90;;;11.80;42.60;;;;;;5064545;28;20064;-66
2022/01/04 09:46:31;;;;;;;2.47;0.90;;;11.80;41.90;;;;;;5071574;28;20143;-67
2022/01/04 09:48:59;;;;;;;1.20;1.02;;;11.80;41.40;;;;;;5067660;28;20122;-67
2022/01/04 09:51:28;;;;;;;3.15;1.00;;;11.80;41.10;;;;;;5069039;28;20484;-66
2022/01/04 09:53:57;;;;;;;1.55;1.00;;;11.90;39.00;;;;;;5066602;28;20048;-67
2022/01/04 09:56:25;;;;;;;2.50;1.02;;;11.90;40.50;;;;;;5065032;28;20045;-66
2022/01/04 09:58:53;;;;;;;1.52;0.85;;;11.90;39.70;;;;;;5067349;28;20071;-68
2022/01/04 10:01:25;;;;;;;2.58;1.10;;;12.00;38.80;;;;;;5070091;28;20042;-65
2022/01/04 10:04:14;;;;;;;1.50;0.90;;;11.90;38.80;;;;;;5067398;28;20051;-65
2022/01/04 10:06:57;;;;;;;1.45;0.82;;;11.90;39.10;;;;;;5068596;28;20082;-66
2022/01/04 10:09:41;;;;;;;2.60;1.00;;;11.90;39.70;;;;;;5067048;28;20044;-66
2022/01/04 10:12:11;;;;;;;1.85;0.70;;;11.90;40.40;;;;;;5067152;28;20503;-65
2022/01/04 10:14:41;;;;;;;3.42;2.38;;;11.90;40.60;;;;;;5065605;28;20127;-66
2022/01/04 10:17:13;;;;;;;1.17;0.82;;;11.90;39.70;;;;;;5054820;28;20052;-66
2022/01/04 10:19:43;;;;;;;1.60;1.00;;;11.90;40.20;;;;;;5073361;28;20089;-68
2022/01/04 10:22:16;;;;;;;8.82;1.50;;;11.90;40.30;;;;;;5069105;28;20127;-65
2022/01/04 10:24:46;;;;;;;2.63;1.10;;;12.00;39.90;;;;;;5066901;28;20036;-66
2022/01/04 10:27:33;;;;;;;1.98;1.10;;;12.00;39.60;;;;;;5073802;28;20078;-65
2022/01/04 10:30:14;;;;;;;4.07;1.40;;;12.00;41.00;;;;;;5065697;28;20449;-66
2022/01/04 10:32:49;;;;;;;3.35;1.33;;;11.90;40.80;;;;;;5072391;28;20052;-66
2022/01/04 10:35:21;;;;;;;;;;;12.00;41.10;;;;;;5074486;28;20514;-66
2022/01/04 10:37:49;;;;;;;2.42;1.33;;;12.00;40.50;;;;;;5067193;28;19929;-66
2022/01/04 10:40:17;;;;;;;1.98;1.00;;;12.00;41.30;;;;;;5069963;28;20072;-66
2022/01/04 10:42:46;;;;;;;4.25;1.90;;;12.00;41.30;;;;;;5073248;28;20055;-66
2022/01/04 10:45:25;;;;;;;1.38;1.00;;;12.00;42.20;;;;;;5069732;28;20048;-65
2022/01/04 10:47:57;;;;;;;1.77;1.02;;;12.10;40.70;;;;;;5072419;28;20051;-66
2022/01/04 10:50:34;;;;;;;3.60;1.52;;;12.10;40.70;;;;;;5070665;28;20127;-66
2022/01/04 10:53:03;;;;;;;4.10;1.08;;;12.10;41.80;;;;;;5064821;28;20102;-67
2022/01/04 10:55:32;;;;;;;1.90;1.33;;;12.10;41.00;;;;;;5067079;28;20054;-67
2022/01/04 10:58:01;;;;;;;2.97;1.25;;;12.10;40.80;;;;;;5073732;28;20037;-67
2022/01/04 11:00:30;;;;;;;6.35;1.30;;;12.10;39.80;;;;;;5045495;28;20064;-67
2022/01/04 11:03:02;;;;;;;1.92;1.20;;;12.10;39.30;;;;;;5064816;28;20056;-66
2022/01/04 11:05:30;;;;;;;1.85;1.42;;;12.10;38.90;;;;;;5073288;28;20051;-67
2022/01/04 11:08:03;;;;;;;3.83;1.48;;;12.10;39.50;;;;;;5069661;28;20135;-67
2022/01/04 11:10:34;;;;;;;3.72;1.40;;;12.10;38.80;;;;;;5065448;28;20048;-67
2022/01/04 11:13:03;;;;;;;2.72;1.00;;;12.20;38.80;;;;;;5063918;28;20114;-66
2022/01/04 11:15:33;;;;;;;3.42;1.20;;;12.20;37.80;;;;;;5063581;28;20491;-66
2022/01/04 11:18:03;;;;;;;4.05;1.38;;;12.20;38.20;;;;;;5064971;28;20123;-67
2022/01/04 11:20:33;;;;;;;2.85;1.52;;;12.20;36.20;;;;;;5062750;28;20040;-66
2022/01/04 11:23:04;;;;;;;2.35;1.30;;;12.20;36.00;;;;;;5044386;28;20044;-65
2022/01/04 11:25:32;;;;;;;1.85;1.45;;;12.20;37.30;;;;;;5063958;28;20146;-66
2022/01/04 11:28:04;;;;;;;2.10;1.23;;;12.20;36.60;;;;;;5065125;28;20084;-66
2022/01/04 11:30:40;;;;;;;2.25;1.10;;;12.20;36.50;;;;;;5063064;28;20048;-66
2022/01/04 11:33:19;;;;;;;1.98;1.50;;;12.20;35.50;;;;;;5067212;28;20150;-66
2022/01/04 11:35:48;;;;;;;4.00;1.50;;;12.20;35.90;;;;;;5065907;28;20135;-67
2022/01/04 11:38:31;;;;;;;1.65;1.10;;;12.20;35.40;;;;;;5068800;28;20051;-67
2022/01/04 11:41:00;;;;;;;2.75;1.60;;;12.20;35.50;;;;;;5066303;28;20127;-66
2022/01/04 11:43:30;;;;;;;1.50;1.05;;;12.20;34.70;;;;;;5064946;28;20049;-66
2022/01/04 11:45:58;;;;;;;3.22;1.42;;;12.20;34.70;;;;;;5066269;28;20053;-66
2022/01/04 11:48:33;;;;;;;4.18;1.52;;;12.20;34.70;;;;;;5068721;28;20044;-66
2022/01/04 11:51:05;;;;;;;2.80;1.40;;;12.10;34.60;;;;;;5067995;28;20048;-67
2022/01/04 11:53:34;;;;;;;3.33;1.50;;;12.20;32.20;;;;;;5064763;28;20049;-67
2022/01/04 11:56:04;;;;;;;3.10;1.50;;;12.10;32.80;;;;;;5068202;28;20396;-67
2022/01/04 11:58:48;;;;;;;2.22;1.33;;;12.20;33.40;;;;;;5069395;28;20036;-68
2022/01/04 12:01:17;;;;;;;2.50;1.40;;;12.20;32.90;;;;;;5067364;28;20048;-67
2022/01/04 12:03:49;;;;;;;2.50;1.55;;;12.10;33.70;;;;;;5065058;28;20103;-66
2022/01/04 12:06:18;;;;;;;2.55;1.20;;;12.10;34.00;;;;;;5068135;28;20044;-66
2022/01/04 12:08:48;;;;;;;2.10;1.42;;;12.10;33.70;;;;;;5068539;28;20523;-66
2022/01/04 12:11:40;;;;;;;1.73;1.30;;;12.10;34.50;;;;;;5065653;28;20114;-66
2022/01/04 12:14:23;;;;;;;4.60;1.63;;;12.10;35.00;;;;;;5064842;28;20057;-66
2022/01/04 12:17:03;;;;;;;3.67;1.80;;;12.00;35.90;;;;;;5067657;28;20068;-67
2022/01/04 12:19:48;;;;;;;16.42;8.80;;;12.00;34.30;;;;;;5063489;28;20105;-65
2022/01/04 12:22:30;;;;;;;3.95;1.90;;;12.00;34.60;;;;;;5067444;28;20507;-66
2022/01/04 12:25:05;;;;;;;3.58;1.90;;;12.10;35.40;;;;;;5067530;28;20084;-67
2022/01/04 12:27:33;;;;;;;4.07;1.70;;;12.00;36.50;;;;;;5075658;28;20037;-66
2022/01/04 12:30:25;;;;;;;2.85;1.35;;;12.00;36.10;;;;;;5066050;28;20152;-65
2022/01/04 12:33:14;;;;;;;3.40;1.60;;;12.00;36.60;;;;;;5074650;28;20052;-66
2022/01/04 12:35:48;;;;;;;3.55;1.17;;;11.90;37.00;;;;;;5070742;28;20040;-66
2022/01/04 12:38:16;;;;;;;2.15;1.35;;;12.00;36.70;;;;;;5072719;28;20037;-67
2022/01/04 12:40:51;;;;;;;2.72;1.55;;;12.00;36.10;;;;;;5069612;28;20109;-66
2022/01/04 12:43:19;;;;;;;;;;;11.90;36.20;;;;;;5054583;28;20096;-66
2022/01/04 12:45:56;;;;;;;4.72;1.80;;;11.90;37.10;;;;;;5054155;28;20311;-66
2022/01/04 12:48:44;;;;;;;2.10;1.70;;;11.90;36.00;;;;;;5050675;28;20396;-66
2022/01/04 12:51:27;;;;;;;3.50;1.85;;;11.90;36.80;;;;;;5050498;28;20453;-66
2022/01/04 12:53:56;;;;;;;4.65;1.85;;;11.90;37.90;;;;;;5046327;28;20401;-67
2022/01/04 12:56:25;;;;;;;3.03;2.00;;;11.80;38.40;;;;;;5046574;28;20128;-65
2022/01/04 12:58:53;;;;;;;2.75;2.00;;;11.80;39.60;;;;;;5048292;28;20130;-66
2022/01/04 13:01:23;;;;;;;2.83;1.90;;;11.80;38.60;;;;;;5048058;28;20200;-67
2022/01/04 13:03:52;;;;;;;2.97;1.65;;;11.70;39.70;;;;;;5047330;28;20044;-66
2022/01/04 13:06:22;;;;;;;5.53;1.88;;;11.70;41.60;;;;;;5047487;28;20425;-66
2022/01/04 13:08:53;;;;;;;5.35;1.52;;;11.70;42.30;;;;;;5051948;28;20065;-66
2022/01/04 13:11:22;;;;;;;2.58;1.73;;;11.70;42.00;;;;;;5045415;28;20538;-67